Time;durP1;ratioP1;P1;durP2;ratioP2;P2;SDS_P1;SDS_P2;PMS_P1;PMS_P2;Temp;Humidity;BMP_temperature;BMP_pressure;BME280_temperature;BME280_humidity;BME280_pressure;Samples;Min_cycle;Max_cycle;Signal;HPM_P1;HPM_P2
2023/05/28 00:00:56;;;;;;;22.70;8.15;;;;;;;;;;5035912;28;20037;-71
2023/05/28 00:03:23;;;;;;;17.45;6.97;;;;;;;;;;5033853;28;20087;-72
2023/05/28 00:05:49;;;;;;;16.92;6.80;;;;;;;;;;5032603;28;20080;-71
2023/05/28 00:08:16;;;;;;;26.23;7.88;;;;;;;;;;5034611;28;20068;-72
2023/05/28 00:10:42;;;;;;;20.55;7.18;;;;;;;;;;5033161;28;20052;-71
2023/05/28 00:13:08;;;;;;;21.88;7.63;;;;;;;;;;5033408;28;20038;-72
2023/05/28 00:15:35;;;;;;;18.02;7.38;;;;;;;;;;5015725;28;20042;-72
2023/05/28 00:18:01;;;;;;;18.95;7.30;;;;;;;;;;5034461;28;20048;-72
2023/05/28 00:20:27;;;;;;;22.83;7.78;;;;;;;;;;5035214;28;20041;-72
2023/05/28 00:22:53;;;;;;;18.92;7.30;;;;;;;;;;5032748;28;20041;-72
2023/05/28 00:25:19;;;;;;;20.63;7.55;;;;;;;;;;5033131;28;20037;-72
2023/05/28 00:27:45;;;;;;;20.50;7.45;;;;;;;;;;5032690;28;20047;-71
2023/05/28 00:30:12;;;;;;;20.45;7.97;;;;;;;;;;5032736;28;20410;-72
2023/05/28 00:32:38;;;;;;;19.70;7.88;;;;;;;;;;5013675;28;20038;-72
2023/05/28 00:35:04;;;;;;;20.67;7.80;;;;;;;;;;5032890;28;20095;-72
2023/05/28 00:37:30;;;;;;;19.92;8.48;;;;;;;;;;5032953;28;20045;-72
2023/05/28 00:39:56;;;;;;;20.50;7.80;;;;;;;;;;5020461;28;20523;-71
2023/05/28 00:42:24;;;;;;;24.10;8.57;;;;;;;;;;5030990;28;20512;-72
2023/05/28 00:44:50;;;;;;;20.38;8.02;;;;;;;;;;5034669;28;20496;-72
2023/05/28 00:47:16;;;;;;;22.33;8.50;;;;;;;;;;5032566;28;20065;-72
2023/05/28 00:49:42;;;;;;;21.13;8.00;;;;;;;;;;5034714;28;20103;-72
2023/05/28 00:52:10;;;;;;;22.52;8.13;;;;;;;;;;5033950;28;20076;-72
2023/05/28 00:54:36;;;;;;;25.48;9.77;;;;;;;;;;5034077;28;20077;-72
2023/05/28 00:57:04;;;;;;;26.60;9.23;;;;;;;;;;5013658;28;20042;-72
2023/05/28 00:59:30;;;;;;;23.98;8.43;;;;;;;;;;5033613;28;20048;-72
2023/05/28 01:01:57;;;;;;;24.77;9.05;;;;;;;;;;5032180;28;20044;-71
2023/05/28 01:04:24;;;;;;;19.50;8.65;;;;;;;;;;5031563;28;20207;-71
2023/05/28 01:06:50;;;;;;;23.52;9.23;;;;;;;;;;5033286;28;20124;-72
2023/05/28 01:09:16;;;;;;;24.40;8.85;;;;;;;;;;5016716;28;20049;-72
2023/05/28 01:11:44;;;;;;;23.10;9.13;;;;;;;;;;5032996;28;20052;-72
2023/05/28 01:14:11;;;;;;;23.38;9.40;;;;;;;;;;5032618;28;20301;-72
2023/05/28 01:16:37;;;;;;;23.27;9.15;;;;;;;;;;5033636;28;20041;-71
2023/05/28 01:19:08;;;;;;;23.58;8.55;;;;;;;;;;5029780;28;20037;-72
2023/05/28 01:21:35;;;;;;;23.90;8.98;;;;;;;;;;5032837;28;20461;-72
2023/05/28 01:24:01;;;;;;;21.67;8.45;;;;;;;;;;5033105;28;20487;-72
2023/05/28 01:26:28;;;;;;;24.35;9.20;;;;;;;;;;5027567;28;20511;-72
2023/05/28 01:28:54;;;;;;;26.42;9.27;;;;;;;;;;5028980;28;20052;-72
2023/05/28 01:31:20;;;;;;;25.98;10.23;;;;;;;;;;5030368;28;20059;-72
2023/05/28 01:33:46;;;;;;;20.50;8.95;;;;;;;;;;5028329;28;20037;-72
2023/05/28 01:36:16;;;;;;;25.30;9.40;;;;;;;;;;5030847;28;20041;-72
2023/05/28 01:38:46;;;;;;;34.08;9.63;;;;;;;;;;5031590;28;20491;-71
2023/05/28 01:41:13;;;;;;;25.25;9.27;;;;;;;;;;5023927;28;20048;-72
2023/05/28 01:43:40;;;;;;;23.42;8.90;;;;;;;;;;5053860;28;20491;-72
2023/05/28 01:46:06;;;;;;;22.55;8.70;;;;;;;;;;5028286;28;20060;-72
2023/05/28 01:48:32;;;;;;;21.58;8.98;;;;;;;;;;5014647;28;20404;-71
2023/05/28 01:50:59;;;;;;;21.17;9.00;;;;;;;;;;5017105;28;20057;-72
2023/05/28 01:53:25;;;;;;;19.55;8.98;;;;;;;;;;5033836;28;20458;-72
2023/05/28 01:55:51;;;;;;;21.98;10.00;;;;;;;;;;5033897;28;20045;-72
2023/05/28 01:58:17;;;;;;;24.85;10.10;;;;;;;;;;5015933;28;20081;-72
2023/05/28 02:00:47;;;;;;;26.70;9.48;;;;;;;;;;5029261;28;20045;-72
2023/05/28 02:03:13;;;;;;;23.83;10.32;;;;;;;;;;5032034;28;20056;-72
2023/05/28 02:05:39;;;;;;;22.05;9.38;;;;;;;;;;5032049;28;20050;-72
2023/05/28 02:08:05;;;;;;;26.20;10.15;;;;;;;;;;5033298;28;20048;-72
2023/05/28 02:10:32;;;;;;;24.48;10.52;;;;;;;;;;5032840;28;20503;-72
2023/05/28 02:13:00;;;;;;;27.23;10.98;;;;;;;;;;5011209;28;20454;-72
2023/05/28 02:15:26;;;;;;;26.38;9.85;;;;;;;;;;5032301;28;20049;-72
2023/05/28 02:17:52;;;;;;;25.45;10.50;;;;;;;;;;5031014;28;20048;-72
2023/05/28 02:20:18;;;;;;;25.67;10.80;;;;;;;;;;5033041;28;20450;-72
2023/05/28 02:22:45;;;;;;;23.65;10.40;;;;;;;;;;5032685;28;20046;-72
2023/05/28 02:25:12;;;;;;;22.25;10.40;;;;;;;;;;5031673;28;20045;-72
2023/05/28 02:27:38;;;;;;;24.10;10.65;;;;;;;;;;5030076;28;20056;-72
2023/05/28 02:30:05;;;;;;;24.17;10.88;;;;;;;;;;5029556;28;20045;-72
2023/05/28 02:32:31;;;;;;;24.88;10.65;;;;;;;;;;5013329;28;20083;-71
2023/05/28 02:34:57;;;;;;;28.35;11.07;;;;;;;;;;5031229;28;20495;-72
2023/05/28 02:37:24;;;;;;;26.35;11.13;;;;;;;;;;5031364;28;20051;-72
2023/05/28 02:39:50;;;;;;;28.55;11.35;;;;;;;;;;5029210;28;20049;-72
2023/05/28 02:42:17;;;;;;;29.95;11.63;;;;;;;;;;5032112;28;20052;-71
2023/05/28 02:44:43;;;;;;;22.45;11.40;;;;;;;;;;5032253;28;20077;-71
2023/05/28 02:47:09;;;;;;;32.55;11.05;;;;;;;;;;5013274;28;20057;-72
2023/05/28 02:49:35;;;;;;;27.15;11.13;;;;;;;;;;5031973;28;20049;-72
2023/05/28 02:52:01;;;;;;;25.30;10.93;;;;;;;;;;5032370;28;20561;-72
2023/05/28 02:54:27;;;;;;;27.35;10.70;;;;;;;;;;5031375;28;20410;-72
2023/05/28 02:56:53;;;;;;;26.95;11.25;;;;;;;;;;5012032;28;20096;-71
2023/05/28 02:59:20;;;;;;;27.50;10.55;;;;;;;;;;5031344;28;20055;-72
2023/05/28 03:01:46;;;;;;;23.10;10.63;;;;;;;;;;5031298;28;20082;-72
2023/05/28 03:04:12;;;;;;;27.27;10.25;;;;;;;;;;5032911;28;20041;-72
2023/05/28 03:06:38;;;;;;;31.52;10.70;;;;;;;;;;5030663;28;20046;-72
2023/05/28 03:09:05;;;;;;;28.17;10.18;;;;;;;;;;5030981;28;20049;-72
2023/05/28 03:11:31;;;;;;;26.60;10.55;;;;;;;;;;5008413;28;20046;-71
2023/05/28 03:13:57;;;;;;;21.55;9.75;;;;;;;;;;5024912;28;20120;-71
2023/05/28 03:16:24;;;;;;;25.48;10.30;;;;;;;;;;5031449;28;20450;-72
2023/05/28 03:18:50;;;;;;;30.15;11.40;;;;;;;;;;5030991;28;20042;-72
2023/05/28 03:21:16;;;;;;;24.00;9.88;;;;;;;;;;5029544;28;20064;-72
2023/05/28 03:23:42;;;;;;;29.58;10.70;;;;;;;;;;5028662;28;20115;-71
2023/05/28 03:26:08;;;;;;;23.00;10.18;;;;;;;;;;5013109;28;20041;-72
2023/05/28 03:28:34;;;;;;;27.80;10.15;;;;;;;;;;5028255;28;20155;-72
2023/05/28 03:31:01;;;;;;;21.45;9.57;;;;;;;;;;5040771;28;20385;-72
2023/05/28 03:33:27;;;;;;;27.58;10.10;;;;;;;;;;5031749;28;20454;-72
2023/05/28 03:35:54;;;;;;;27.05;10.13;;;;;;;;;;5036380;28;20499;-72
2023/05/28 03:38:20;;;;;;;20.35;9.40;;;;;;;;;;5018157;28;20132;-72
2023/05/28 03:40:46;;;;;;;21.05;9.95;;;;;;;;;;5030710;28;20045;-72
2023/05/28 03:43:12;;;;;;;26.75;9.63;;;;;;;;;;5015622;28;20096;-71
2023/05/28 03:45:38;;;;;;;22.45;9.82;;;;;;;;;;5028653;28;20053;-72
2023/05/28 03:48:06;;;;;;;21.20;9.65;;;;;;;;;;5031491;28;20068;-72
2023/05/28 03:50:32;;;;;;;21.73;9.70;;;;;;;;;;5013196;28;20080;-72
2023/05/28 03:52:58;;;;;;;29.33;10.98;;;;;;;;;;5017366;28;20072;-72
2023/05/28 03:55:24;;;;;;;24.83;9.88;;;;;;;;;;5021469;28;20053;-72
2023/05/28 03:57:50;;;;;;;23.92;9.93;;;;;;;;;;5030671;28;20045;-72
2023/05/28 04:00:16;;;;;;;24.77;9.90;;;;;;;;;;5032597;28;20549;-72
2023/05/28 04:02:42;;;;;;;25.67;9.95;;;;;;;;;;5033418;28;20049;-72
2023/05/28 04:05:09;;;;;;;21.45;9.70;;;;;;;;;;5033577;28;20048;-72
2023/05/28 04:07:35;;;;;;;29.13;10.43;;;;;;;;;;5033924;28;20042;-72
2023/05/28 04:10:01;;;;;;;25.83;9.98;;;;;;;;;;5015931;28;20075;-72
2023/05/28 04:12:27;;;;;;;26.20;10.32;;;;;;;;;;5034384;28;20060;-72
2023/05/28 04:14:53;;;;;;;25.60;10.20;;;;;;;;;;5034092;28;20057;-72
2023/05/28 04:17:20;;;;;;;28.67;10.90;;;;;;;;;;5029126;28;20080;-72
2023/05/28 04:19:47;;;;;;;24.35;10.27;;;;;;;;;;5034266;28;20056;-72
2023/05/28 04:22:13;;;;;;;24.25;10.15;;;;;;;;;;5031361;28;20057;-72
2023/05/28 04:24:39;;;;;;;25.80;10.63;;;;;;;;;;5032771;28;20054;-72
2023/05/28 04:27:06;;;;;;;24.00;10.27;;;;;;;;;;5032365;28;20136;-72
2023/05/28 04:29:33;;;;;;;21.70;10.00;;;;;;;;;;5034011;28;20384;-72
2023/05/28 04:31:59;;;;;;;25.17;10.48;;;;;;;;;;5030245;28;20079;-71
2023/05/28 04:34:27;;;;;;;21.60;10.07;;;;;;;;;;5032314;28;20041;-72
2023/05/28 04:36:53;;;;;;;24.98;10.48;;;;;;;;;;5019054;28;20038;-71
2023/05/28 04:39:21;;;;;;;24.00;10.00;;;;;;;;;;5014841;28;20049;-72
2023/05/28 04:41:47;;;;;;;25.02;9.85;;;;;;;;;;5031803;28;20060;-72
2023/05/28 04:44:15;;;;;;;24.63;10.25;;;;;;;;;;5029933;28;20511;-72
2023/05/28 04:46:45;;;;;;;23.52;10.18;;;;;;;;;;5033346;28;20507;-72
2023/05/28 04:49:14;;;;;;;28.52;10.60;;;;;;;;;;5031566;28;20053;-71
2023/05/28 04:51:41;;;;;;;21.98;9.98;;;;;;;;;;5032591;28;20057;-71
2023/05/28 04:54:07;;;;;;;25.42;10.35;;;;;;;;;;5032161;28;20053;-72
2023/05/28 04:56:33;;;;;;;22.38;10.10;;;;;;;;;;5033451;28;20507;-72
2023/05/28 04:58:59;;;;;;;23.60;10.93;;;;;;;;;;5031122;28;20348;-72
2023/05/28 05:01:25;;;;;;;23.77;9.38;;;;;;;;;;5032404;28;20503;-72
2023/05/28 05:03:51;;;;;;;22.50;9.50;;;;;;;;;;5033027;28;20463;-72
2023/05/28 05:06:17;;;;;;;19.67;9.30;;;;;;;;;;5029550;28;20123;-71
2023/05/28 05:08:43;;;;;;;23.05;9.65;;;;;;;;;;5031692;28;20639;-71
2023/05/28 05:11:09;;;;;;;24.20;9.23;;;;;;;;;;5030954;28;20049;-72
2023/05/28 05:13:35;;;;;;;23.33;8.95;;;;;;;;;;5033132;28;20037;-72
2023/05/28 05:16:01;;;;;;;19.52;8.10;;;;;;;;;;5032393;28;20175;-72
2023/05/28 05:18:27;;;;;;;21.67;8.63;;;;;;;;;;5032257;28;20495;-72
2023/05/28 05:20:55;;;;;;;20.90;7.72;;;;;;;;;;5032238;28;20041;-72
2023/05/28 05:23:21;;;;;;;17.33;7.75;;;;;;;;;;5023856;28;20049;-71
2023/05/28 05:25:47;;;;;;;19.55;7.30;;;;;;;;;;5023729;28;20054;-72
2023/05/28 05:28:13;;;;;;;17.77;7.40;;;;;;;;;;5032461;28;20483;-72
2023/05/28 05:30:39;;;;;;;19.40;6.75;;;;;;;;;;5031263;28;20092;-71
2023/05/28 05:33:05;;;;;;;21.65;7.25;;;;;;;;;;5030498;28;20037;-72
2023/05/28 05:35:31;;;;;;;19.17;7.05;;;;;;;;;;5030966;28;20115;-72
2023/05/28 05:37:57;;;;;;;17.55;6.70;;;;;;;;;;5031888;28;20128;-72
2023/05/28 05:40:23;;;;;;;14.77;6.10;;;;;;;;;;5018014;28;20144;-71
2023/05/28 05:42:49;;;;;;;17.73;6.22;;;;;;;;;;5030613;28;20121;-72
2023/05/28 05:45:15;;;;;;;15.65;5.53;;;;;;;;;;5032518;28;20095;-72
2023/05/28 05:47:41;;;;;;;14.30;5.38;;;;;;;;;;5031550;28;20057;-72
2023/05/28 05:50:07;;;;;;;13.93;5.60;;;;;;;;;;5001746;28;20464;-72
2023/05/28 05:52:33;;;;;;;17.52;5.88;;;;;;;;;;5018807;28;20056;-71
2023/05/28 05:54:59;;;;;;;15.60;5.97;;;;;;;;;;5030998;28;20053;-72
2023/05/28 05:57:26;;;;;;;16.05;5.65;;;;;;;;;;5031954;28;20510;-72
2023/05/28 05:59:52;;;;;;;15.13;5.57;;;;;;;;;;5032319;28;20052;-72
2023/05/28 06:02:18;;;;;;;16.95;5.32;;;;;;;;;;5031994;28;20403;-72
2023/05/28 06:04:44;;;;;;;12.43;5.20;;;;;;;;;;5031361;28;20053;-72
2023/05/28 06:07:10;;;;;;;18.65;5.95;;;;;;;;;;5018120;28;20057;-71
2023/05/28 06:09:36;;;;;;;14.93;5.90;;;;;;;;;;5028050;28;20569;-72
2023/05/28 06:12:03;;;;;;;16.67;5.50;;;;;;;;;;5030898;28;20388;-72
2023/05/28 06:14:29;;;;;;;16.23;5.65;;;;;;;;;;5029999;28;20456;-72
2023/05/28 06:16:55;;;;;;;15.15;5.10;;;;;;;;;;5032571;28;20128;-72
2023/05/28 06:19:21;;;;;;;11.98;5.18;;;;;;;;;;5032114;28;20546;-73
2023/05/28 06:21:47;;;;;;;15.15;5.95;;;;;;;;;;5030743;28;20049;-72
2023/05/28 06:24:13;;;;;;;15.75;5.55;;;;;;;;;;5030585;28;20487;-72
2023/05/28 06:26:39;;;;;;;14.93;5.85;;;;;;;;;;5026185;28;20041;-72
2023/05/28 06:29:07;;;;;;;12.65;5.68;;;;;;;;;;5031934;28;20054;-72
2023/05/28 06:31:34;;;;;;;15.55;5.80;;;;;;;;;;5030613;28;20404;-72
2023/05/28 06:34:01;;;;;;;15.52;6.43;;;;;;;;;;5029199;28;20111;-72
2023/05/28 06:36:27;;;;;;;16.15;5.40;;;;;;;;;;5030859;28;20122;-72
2023/05/28 06:38:53;;;;;;;14.10;5.57;;;;;;;;;;5031507;28;20037;-72
2023/05/28 06:41:19;;;;;;;19.08;5.45;;;;;;;;;;5013096;28;20412;-72
2023/05/28 06:43:46;;;;;;;15.32;5.30;;;;;;;;;;5030686;28;20056;-72
2023/05/28 06:46:12;;;;;;;14.68;5.90;;;;;;;;;;5010901;28;20061;-72
2023/05/28 06:48:38;;;;;;;14.00;5.65;;;;;;;;;;5012024;28;20049;-72
2023/05/28 06:51:04;;;;;;;16.00;5.93;;;;;;;;;;5027972;28;20089;-72
2023/05/28 06:53:30;;;;;;;15.77;6.15;;;;;;;;;;5042922;28;20041;-72
2023/05/28 06:55:58;;;;;;;13.52;5.22;;;;;;;;;;5031913;28;20042;-73
2023/05/28 06:58:24;;;;;;;14.85;5.45;;;;;;;;;;5031417;28;20072;-72
2023/05/28 07:00:50;;;;;;;14.52;5.78;;;;;;;;;;5014141;28;20110;-73
2023/05/28 07:03:16;;;;;;;13.25;5.22;;;;;;;;;;5028932;28;20046;-72
2023/05/28 07:05:42;;;;;;;14.02;5.15;;;;;;;;;;5030534;28;20053;-73
2023/05/28 07:08:08;;;;;;;15.18;5.20;;;;;;;;;;5030363;28;20041;-72
2023/05/28 07:10:34;;;;;;;12.90;5.20;;;;;;;;;;5030636;28;20592;-73
2023/05/28 07:13:00;;;;;;;12.07;5.22;;;;;;;;;;5012995;28;20053;-73
2023/05/28 07:15:27;;;;;;;13.43;5.47;;;;;;;;;;5025411;28;20049;-72
2023/05/28 07:17:53;;;;;;;11.68;5.20;;;;;;;;;;5029160;28;20079;-72
2023/05/28 07:20:20;;;;;;;11.95;5.05;;;;;;;;;;5020654;28;20429;-72
2023/05/28 07:22:46;;;;;;;14.02;5.43;;;;;;;;;;5027063;28;20505;-73
2023/05/28 07:25:12;;;;;;;12.98;5.22;;;;;;;;;;5030447;28;20136;-73
2023/05/28 07:27:38;;;;;;;12.73;5.70;;;;;;;;;;5028880;28;20095;-73
2023/05/28 07:30:04;;;;;;;13.02;5.50;;;;;;;;;;5027888;28;20041;-73
2023/05/28 07:32:31;;;;;;;11.02;5.32;;;;;;;;;;4994442;28;20049;-73
2023/05/28 07:34:57;;;;;;;13.18;5.35;;;;;;;;;;5024298;28;20464;-72
2023/05/28 07:37:23;;;;;;;13.60;5.75;;;;;;;;;;5033971;28;20046;-73
2023/05/28 07:39:49;;;;;;;12.90;5.80;;;;;;;;;;5033488;28;20155;-73
2023/05/28 07:42:15;;;;;;;14.00;6.05;;;;;;;;;;5035394;28;20045;-73
2023/05/28 07:44:41;;;;;;;12.55;6.65;;;;;;;;;;5035192;28;20056;-73
2023/05/28 07:47:07;;;;;;;12.68;5.47;;;;;;;;;;5034681;28;20050;-73
2023/05/28 07:49:33;;;;;;;13.95;5.95;;;;;;;;;;5032219;28;20061;-73
2023/05/28 07:51:59;;;;;;;14.20;5.55;;;;;;;;;;5031303;28;20050;-73
2023/05/28 07:54:25;;;;;;;13.25;5.60;;;;;;;;;;5054345;28;20391;-72
2023/05/28 07:56:51;;;;;;;12.98;5.82;;;;;;;;;;5054843;28;20053;-73
2023/05/28 07:59:18;;;;;;;13.55;5.57;;;;;;;;;;5048370;28;20431;-72
2023/05/28 08:01:44;;;;;;;14.88;5.78;;;;;;;;;;5029728;28;20053;-72
2023/05/28 08:04:10;;;;;;;13.65;5.68;;;;;;;;;;5007565;28;20458;-73
2023/05/28 08:06:37;;;;;;;13.98;5.50;;;;;;;;;;5002610;28;20049;-73
2023/05/28 08:09:03;;;;;;;15.60;5.65;;;;;;;;;;5032867;28;20049;-73
2023/05/28 08:11:29;;;;;;;12.75;5.63;;;;;;;;;;5034511;28;20057;-73
2023/05/28 08:13:55;;;;;;;15.25;6.32;;;;;;;;;;5033386;28;20052;-73
2023/05/28 08:16:21;;;;;;;15.00;5.93;;;;;;;;;;5034885;28;20095;-73
2023/05/28 08:18:47;;;;;;;13.63;5.97;;;;;;;;;;5034509;28;20058;-73
2023/05/28 08:21:13;;;;;;;14.05;5.88;;;;;;;;;;5022714;28;20053;-72
2023/05/28 08:23:39;;;;;;;14.52;6.30;;;;;;;;;;5033390;28;20415;-73
2023/05/28 08:26:05;;;;;;;12.20;5.93;;;;;;;;;;5030861;28;20052;-73
2023/05/28 08:28:31;;;;;;;12.80;5.68;;;;;;;;;;5032703;28;20045;-72
2023/05/28 08:30:57;;;;;;;16.70;6.75;;;;;;;;;;5033995;28;20091;-73
2023/05/28 08:33:24;;;;;;;11.55;5.50;;;;;;;;;;5015959;28;20348;-73
2023/05/28 08:35:50;;;;;;;14.52;6.25;;;;;;;;;;5034410;28;20594;-73
2023/05/28 08:38:16;;;;;;;12.23;5.93;;;;;;;;;;5031262;28;20129;-73
2023/05/28 08:40:44;;;;;;;13.82;6.28;;;;;;;;;;5034428;28;20072;-73
2023/05/28 08:43:10;;;;;;;13.45;6.22;;;;;;;;;;4999140;28;20049;-73
2023/05/28 08:45:39;;;;;;;13.68;6.15;;;;;;;;;;5030626;28;20414;-73
2023/05/28 08:48:06;;;;;;;14.40;6.65;;;;;;;;;;5034019;28;20038;-73
2023/05/28 08:50:33;;;;;;;12.95;6.38;;;;;;;;;;5032757;28;20061;-73
2023/05/28 08:53:00;;;;;;;15.18;6.60;;;;;;;;;;5031921;28;20042;-73
2023/05/28 08:55:26;;;;;;;14.80;6.70;;;;;;;;;;5041328;28;20128;-73
2023/05/28 08:57:52;;;;;;;16.45;7.03;;;;;;;;;;5032668;28;20088;-72
2023/05/28 09:00:18;;;;;;;14.07;6.00;;;;;;;;;;5034108;28;20045;-74
2023/05/28 09:02:45;;;;;;;11.55;5.82;;;;;;;;;;5033560;28;20087;-73
2023/05/28 09:05:11;;;;;;;16.55;6.28;;;;;;;;;;5033060;28;20073;-74
2023/05/28 09:07:37;;;;;;;12.85;5.60;;;;;;;;;;5033362;28;20053;-74
2023/05/28 09:10:03;;;;;;;13.02;6.03;;;;;;;;;;5033634;28;20045;-74
2023/05/28 09:12:29;;;;;;;15.50;6.35;;;;;;;;;;5033483;28;20377;-74
2023/05/28 09:14:56;;;;;;;12.88;6.13;;;;;;;;;;5016037;28;20057;-74
2023/05/28 09:17:33;;;;;;;13.88;5.88;;;;;;;;;;5035644;28;20053;-74
2023/05/28 09:20:04;;;;;;;13.82;6.03;;;;;;;;;;5032300;28;20052;-75
2023/05/28 09:22:31;;;;;;;15.70;5.80;;;;;;;;;;5032208;28;20057;-74
2023/05/28 09:24:57;;;;;;;13.18;6.25;;;;;;;;;;5033360;28;20042;-74
2023/05/28 09:27:23;;;;;;;11.43;6.05;;;;;;;;;;5014568;28;20430;-75
2023/05/28 09:29:49;;;;;;;17.23;6.50;;;;;;;;;;5033596;28;20068;-74
2023/05/28 09:32:22;;;;;;;14.35;5.93;;;;;;;;;;5033123;28;20077;-75
2023/05/28 09:34:51;;;;;;;11.93;5.78;;;;;;;;;;5033220;28;20123;-74
2023/05/28 09:37:18;;;;;;;13.65;6.05;;;;;;;;;;5011405;28;20037;-74
2023/05/28 09:39:44;;;;;;;13.48;5.43;;;;;;;;;;5033302;28;20128;-74
2023/05/28 09:42:11;;;;;;;15.85;5.13;;;;;;;;;;5032844;28;20077;-74
2023/05/28 09:44:38;;;;;;;12.65;5.93;;;;;;;;;;5032777;28;20045;-74
2023/05/28 09:47:16;;;;;;;12.40;5.93;;;;;;;;;;5036889;28;20057;-74
2023/05/28 09:49:46;;;;;;;14.23;5.93;;;;;;;;;;5040790;28;20068;-75
2023/05/28 09:52:18;;;;;;;13.98;6.13;;;;;;;;;;5032657;28;20049;-74
2023/05/28 09:54:45;;;;;;;13.93;6.00;;;;;;;;;;5033218;28;20395;-74
2023/05/28 09:57:12;;;;;;;9.63;4.68;;;;;;;;;;5032070;28;20053;-74
2023/05/28 09:59:39;;;;;;;12.25;5.30;;;;;;;;;;5039404;28;20099;-73
2023/05/28 10:02:24;;;;;;;15.18;5.35;;;;;;;;;;5052462;28;20048;-73
2023/05/28 10:04:56;;;;;;;14.52;5.72;;;;;;;;;;5053139;28;20049;-74
2023/05/28 10:07:25;;;;;;;14.88;5.78;;;;;;;;;;5047789;28;20042;-74
2023/05/28 10:09:51;;;;;;;12.10;5.82;;;;;;;;;;5013626;28;20045;-74
2023/05/28 10:12:18;;;;;;;11.35;5.25;;;;;;;;;;5032221;28;20526;-73
2023/05/28 10:14:45;;;;;;;10.80;5.00;;;;;;;;;;5030910;28;20045;-74
2023/05/28 10:17:11;;;;;;;11.73;5.15;;;;;;;;;;5049238;28;20048;-74
2023/05/28 10:19:38;;;;;;;11.30;4.97;;;;;;;;;;5035735;28;20404;-74
2023/05/28 10:22:04;;;;;;;12.82;5.57;;;;;;;;;;5032508;28;20049;-74
2023/05/28 10:24:31;;;;;;;9.55;4.82;;;;;;;;;;5030170;28;20053;-73
2023/05/28 10:26:58;;;;;;;10.20;5.00;;;;;;;;;;5023223;28;20450;-74
2023/05/28 10:29:24;;;;;;;10.73;4.68;;;;;;;;;;5032550;28;20050;-73
2023/05/28 10:32:02;;;;;;;13.50;5.53;;;;;;;;;;5031573;28;20054;-73
2023/05/28 10:34:32;;;;;;;10.68;5.13;;;;;;;;;;5038928;28;20044;-73
2023/05/28 10:37:02;;;;;;;11.57;5.68;;;;;;;;;;5052233;28;20513;-74
2023/05/28 10:39:37;;;;;;;10.60;5.03;;;;;;;;;;5052127;28;20064;-74
2023/05/28 10:42:03;;;;;;;12.70;5.63;;;;;;;;;;5052043;28;20057;-74
2023/05/28 10:44:48;;;;;;;9.40;5.05;;;;;;;;;;5034499;28;20052;-74
2023/05/28 10:47:16;;;;;;;15.35;5.50;;;;;;;;;;5044715;28;20053;-73
2023/05/28 10:49:59;;;;;;;12.80;5.18;;;;;;;;;;5030594;28;20045;-74
2023/05/28 10:52:25;;;;;;;12.82;5.60;;;;;;;;;;5031643;28;20515;-74
2023/05/28 10:54:52;;;;;;;11.50;5.22;;;;;;;;;;5030263;28;20054;-73
2023/05/28 10:57:20;;;;;;;16.92;5.20;;;;;;;;;;5031973;28;20404;-74
2023/05/28 10:59:52;;;;;;;10.77;5.43;;;;;;;;;;5032139;28;20052;-73
2023/05/28 11:02:19;;;;;;;11.73;5.88;;;;;;;;;;5028660;28;20057;-74
2023/05/28 11:04:46;;;;;;;10.48;5.30;;;;;;;;;;5030902;28;20041;-73
2023/05/28 11:07:13;;;;;;;12.25;4.78;;;;;;;;;;5038721;28;20372;-74
2023/05/28 11:09:40;;;;;;;10.65;4.57;;;;;;;;;;5027639;28;20053;-73
2023/05/28 11:12:06;;;;;;;11.82;5.50;;;;;;;;;;5036689;28;20132;-73
2023/05/28 11:14:36;;;;;;;9.88;5.25;;;;;;;;;;5032538;28;20153;-74
2023/05/28 11:17:05;;;;;;;10.77;4.93;;;;;;;;;;5033077;28;20561;-74
2023/05/28 11:19:31;;;;;;;10.52;5.03;;;;;;;;;;5033430;28;20499;-74
2023/05/28 11:21:57;;;;;;;11.88;5.22;;;;;;;;;;5034592;28;20038;-73
2023/05/28 11:24:24;;;;;;;10.38;4.65;;;;;;;;;;5035800;28;20128;-73
2023/05/28 11:26:52;;;;;;;9.30;4.50;;;;;;;;;;5033423;28;20096;-74
2023/05/28 11:29:18;;;;;;;9.98;5.20;;;;;;;;;;5023747;28;20048;-73
2023/05/28 11:31:45;;;;;;;8.80;4.68;;;;;;;;;;5035253;28;20467;-73
2023/05/28 11:34:11;;;;;;;9.25;4.68;;;;;;;;;;5032751;28;20045;-73
2023/05/28 11:36:44;;;;;;;9.55;4.32;;;;;;;;;;5032534;28;20060;-73
2023/05/28 11:39:10;;;;;;;10.07;4.70;;;;;;;;;;5034411;28;20041;-74
2023/05/28 11:41:36;;;;;;;9.93;4.80;;;;;;;;;;5034912;28;20489;-74
2023/05/28 11:44:03;;;;;;;9.55;4.78;;;;;;;;;;5032366;28;20052;-73
2023/05/28 11:46:29;;;;;;;9.32;4.32;;;;;;;;;;5032341;28;20050;-73
2023/05/28 11:48:55;;;;;;;10.15;5.20;;;;;;;;;;5037425;28;20046;-73
2023/05/28 11:51:21;;;;;;;8.68;4.55;;;;;;;;;;5026646;28;20124;-73
2023/05/28 11:53:47;;;;;;;8.55;4.47;;;;;;;;;;5015962;28;20060;-76
2023/05/28 11:56:14;;;;;;;11.00;5.03;;;;;;;;;;5044163;28;20077;-73
2023/05/28 11:58:45;;;;;;;9.15;4.82;;;;;;;;;;5031909;28;20121;-74
2023/05/28 12:01:15;;;;;;;8.95;3.97;;;;;;;;;;5031472;28;20060;-73
2023/05/28 12:03:41;;;;;;;9.48;4.63;;;;;;;;;;5012675;28;20049;-73
2023/05/28 12:06:07;;;;;;;10.10;3.95;;;;;;;;;;5032007;28;20129;-73
2023/05/28 12:08:33;;;;;;;8.65;3.97;;;;;;;;;;5015509;28;20474;-73
2023/05/28 12:11:03;;;;;;;7.88;4.25;;;;;;;;;;5023167;28;20050;-74
2023/05/28 12:13:33;;;;;;;9.52;4.25;;;;;;;;;;5008767;28;20045;-73
2023/05/28 12:16:06;;;;;;;9.00;4.60;;;;;;;;;;5021578;28;20038;-74
2023/05/28 12:18:32;;;;;;;8.68;4.43;;;;;;;;;;5033585;28;20057;-73
2023/05/28 12:20:58;;;;;;;9.07;4.68;;;;;;;;;;5032502;28;20522;-73
2023/05/28 12:23:25;;;;;;;8.30;4.65;;;;;;;;;;5036442;28;20067;-74
2023/05/28 12:25:52;;;;;;;7.95;4.53;;;;;;;;;;5025029;28;20496;-74
2023/05/28 12:28:22;;;;;;;9.32;4.95;;;;;;;;;;5030932;28;20560;-74
2023/05/28 12:30:53;;;;;;;8.80;4.70;;;;;;;;;;5000028;28;20080;-73
2023/05/28 12:33:19;;;;;;;;;;;;;;;;;;5034558;28;20155;-74
2023/05/28 12:35:45;;;;;;;7.90;4.20;;;;;;;;;;5032285;28;19928;-74
2023/05/28 12:38:12;;;;;;;9.63;5.35;;;;;;;;;;5031330;28;20053;-74
2023/05/28 12:40:38;;;;;;;8.45;5.20;;;;;;;;;;5033169;28;20060;-74
2023/05/28 12:43:04;;;;;;;7.25;3.90;;;;;;;;;;5010648;28;20041;-73
2023/05/28 12:45:31;;;;;;;10.57;4.75;;;;;;;;;;5030046;28;20076;-74
2023/05/28 12:47:57;;;;;;;8.20;4.50;;;;;;;;;;5031939;28;20057;-74
2023/05/28 12:50:23;;;;;;;10.98;4.85;;;;;;;;;;5032716;28;20549;-74
2023/05/28 12:52:49;;;;;;;9.65;4.38;;;;;;;;;;5026614;28;20575;-73
2023/05/28 12:55:16;;;;;;;10.55;4.25;;;;;;;;;;5026917;28;20053;-74
2023/05/28 12:57:42;;;;;;;8.63;4.32;;;;;;;;;;5026158;28;20172;-73
2023/05/28 13:00:12;;;;;;;8.82;4.25;;;;;;;;;;5026010;28;20049;-73
2023/05/28 13:02:38;;;;;;;8.65;4.07;;;;;;;;;;5025659;28;20139;-74
2023/05/28 13:05:05;;;;;;;8.43;4.03;;;;;;;;;;5001126;28;20037;-74
2023/05/28 13:07:31;;;;;;;10.27;4.07;;;;;;;;;;5026762;28;20045;-74
2023/05/28 13:09:57;;;;;;;9.95;3.95;;;;;;;;;;5027434;28;20053;-74
2023/05/28 13:12:23;;;;;;;8.38;3.63;;;;;;;;;;5011943;28;20045;-74
2023/05/28 13:14:49;;;;;;;10.73;3.83;;;;;;;;;;5009942;28;20046;-74
2023/05/28 13:17:15;;;;;;;7.72;3.70;;;;;;;;;;5031470;28;20514;-74
2023/05/28 13:19:41;;;;;;;8.68;3.40;;;;;;;;;;5032136;28;20054;-74
2023/05/28 13:22:10;;;;;;;9.60;3.78;;;;;;;;;;5031846;28;20042;-74
2023/05/28 13:24:37;;;;;;;9.15;3.72;;;;;;;;;;5026208;28;20056;-74
2023/05/28 13:27:03;;;;;;;10.07;3.60;;;;;;;;;;5022650;28;20488;-74
2023/05/28 13:29:29;;;;;;;8.95;3.28;;;;;;;;;;5031838;28;20038;-74
2023/05/28 13:31:55;;;;;;;10.55;3.83;;;;;;;;;;5020299;28;20046;-74
2023/05/28 13:34:21;;;;;;;9.68;3.60;;;;;;;;;;5029227;28;20045;-74
2023/05/28 13:36:47;;;;;;;9.60;3.20;;;;;;;;;;5030753;28;20579;-74
2023/05/28 13:39:13;;;;;;;10.18;3.17;;;;;;;;;;5029490;28;20064;-74
2023/05/28 13:41:40;;;;;;;7.38;2.90;;;;;;;;;;5028010;28;20345;-74
2023/05/28 13:44:06;;;;;;;8.73;3.10;;;;;;;;;;5029626;28;20048;-74
2023/05/28 13:46:32;;;;;;;8.90;3.40;;;;;;;;;;5031552;28;20061;-74
2023/05/28 13:48:58;;;;;;;7.80;2.92;;;;;;;;;;5030285;28;20048;-74
2023/05/28 13:51:24;;;;;;;9.57;3.40;;;;;;;;;;5029793;28;20102;-74
2023/05/28 13:53:51;;;;;;;6.20;2.45;;;;;;;;;;5027860;28;20052;-73
2023/05/28 13:56:17;;;;;;;11.18;3.08;;;;;;;;;;5018691;28;20038;-74
2023/05/28 13:58:43;;;;;;;7.85;2.97;;;;;;;;;;5030308;28;20041;-74
2023/05/28 14:01:10;;;;;;;8.10;2.80;;;;;;;;;;5026755;28;20119;-75
2023/05/28 14:03:36;;;;;;;10.75;2.90;;;;;;;;;;5027530;28;20045;-73
2023/05/28 14:06:03;;;;;;;8.05;2.95;;;;;;;;;;5030605;28;20107;-74
2023/05/28 14:08:29;;;;;;;10.68;3.20;;;;;;;;;;5010324;28;20124;-73
2023/05/28 14:10:55;;;;;;;10.15;3.03;;;;;;;;;;5030868;28;20388;-74
2023/05/28 14:13:21;;;;;;;8.02;2.90;;;;;;;;;;5029316;28;20064;-74
2023/05/28 14:15:47;;;;;;;8.75;2.97;;;;;;;;;;5020688;28;20049;-73
2023/05/28 14:18:13;;;;;;;8.05;2.88;;;;;;;;;;5029471;28;20412;-73
2023/05/28 14:20:40;;;;;;;7.65;2.72;;;;;;;;;;5029365;28;20488;-73
2023/05/28 14:23:06;;;;;;;9.57;3.72;;;;;;;;;;5031252;28;20045;-73
2023/05/28 14:25:32;;;;;;;10.77;2.92;;;;;;;;;;5029685;28;20405;-74
2023/05/28 14:27:58;;;;;;;10.70;3.22;;;;;;;;;;5031413;28;20056;-72